Enter the Airport ICAO Code

Search by Airport or City

Current Weather

SKRG | José María Córdova International Airport

Medellín, Colombia

Last Update 15 Minutes Ago

Partly Cloudy Sky

Temperature of 21 ºC

Light to Moderate Winds from East

Temperature

21 ºC

Dew Point Temperature

15 ºC

Relative Humidity

68.72 %

Wind Direction

East (110º, Without Significant Variations)

Wind Velocity

17 km/h (09 kt)

Gusts

None

Visibility

Greater than 10 Kilometers

Sea Level Pressure

1024 hPa (Hectopascals)

Layers of Clouds

5% to 30% of Sky Covered with Towering Cumulus from 610 mts (2000 ft) Above Ground Level.

30% to 60% of Sky Covered from 6096 mts (20000 ft) Above Ground Level.

METAR SKRG 052200Z 11009KT 9999 FEW020TCU SCT200 21/15 Q1024 NOSIG RMK TCU/S A3025

Weather Forecast

SKRG | José María Córdova International Airport

Medellín, Colombia

Forecast valid for the next 20 Hours

From now on it is expected:

Partly Cloudy Sky

Moderate Winds from East

In 2 to 4 hours it is expected the begining of:

Light Winds from Variable Directions

In 6 hours it is expected the begining of 3 hours with intermittent periods of:

Mostly Cloudy Sky

In 10 hours it is expected the begining of 4 hours with intermittent periods of:

Drizzle, Mist

Maximum Temperature

No Data

Minimum Temperature

No Data

TAF SKRG 051630Z 0518/0618 10010KT 9999 SCT020 TEMPO 0519/0523 SCT018TCU BECMG 0600/0602 VRB02KT TEMPO 0604/0607 BKN010 TEMPO 0608/0612 4000 DZ BR BKN006 TX23/0519Z TN13/0610Z